createdAt,value
2022-11-18T00:02:13.268Z,29.67
2022-11-18T00:04:42.807Z,33.65
2022-11-18T00:07:12.407Z,33.83
2022-11-18T00:09:44.466Z,36.83
2022-11-18T00:12:26.478Z,29.75
2022-11-18T00:14:56.019Z,32.53
2022-11-18T00:17:25.445Z,28.83
2022-11-18T00:19:55.009Z,33.45
2022-11-18T00:22:29.762Z,33.33
2022-11-18T00:25:02.046Z,32.60
2022-11-18T00:27:32.541Z,32.42
2022-11-18T00:30:02.010Z,30.52
2022-11-18T00:32:32.503Z,32.70
2022-11-18T00:35:02.224Z,35.17
2022-11-18T00:37:31.740Z,32.08
2022-11-18T00:40:03.859Z,32.83
2022-11-18T00:42:45.800Z,31.17
2022-11-18T00:45:16.456Z,33.67
2022-11-18T00:47:45.845Z,32.65
2022-11-18T00:50:15.776Z,33.65
2022-11-18T00:52:45.365Z,32.55
2022-11-18T00:55:17.856Z,33.65
2022-11-18T00:57:47.309Z,33.40
2022-11-18T01:00:17.851Z,31.10
2022-11-18T01:02:47.366Z,35.60
2022-11-18T01:05:16.834Z,30.30
2022-11-18T01:07:46.265Z,28.10
2022-11-18T01:10:18.973Z,28.85
2022-11-18T01:13:00.994Z,33.22
2022-11-18T01:15:30.422Z,31.20
2022-11-18T01:17:59.827Z,35.08
2022-11-18T01:20:29.270Z,31.77
2022-11-18T01:22:58.710Z,31.63
2022-11-18T01:25:30.826Z,36.65
2022-11-18T01:28:00.227Z,36.28
2022-11-18T01:30:29.694Z,37.88
2022-11-18T01:32:59.142Z,34.63
2022-11-18T01:35:28.586Z,35.47
2022-11-18T01:37:58.078Z,38.28
2022-11-18T01:40:30.473Z,35.58
2022-11-18T01:43:00.039Z,32.85
2022-11-18T01:45:38.257Z,39.35
2022-11-18T01:48:09.782Z,35.60
2022-11-18T01:50:42.029Z,38.53
2022-11-18T01:53:14.364Z,34.63
2022-11-18T01:55:49.007Z,41.53
2022-11-18T01:58:21.783Z,35.50
2022-11-18T02:00:51.271Z,37.60
2022-11-18T02:03:20.909Z,38.13
2022-11-18T02:05:51.288Z,34.03
2022-11-18T02:08:22.011Z,36.75
2022-11-18T02:10:53.997Z,38.42
2022-11-18T02:13:24.041Z,36.25
2022-11-18T02:15:58.570Z,33.00
2022-11-18T02:18:34.211Z,38.35
2022-11-18T02:21:14.840Z,38.97
2022-11-18T02:24:04.850Z,40.78
2022-11-18T02:27:11.761Z,56.53
2022-11-18T02:29:45.819Z,53.03
2022-11-18T02:32:18.379Z,46.03
2022-11-18T02:34:52.062Z,48.63
2022-11-18T02:37:25.849Z,46.65
2022-11-18T02:39:59.914Z,47.28
2022-11-18T02:42:30.337Z,43.95
2022-11-18T02:45:07.249Z,41.83
2022-11-18T02:47:38.126Z,41.97
2022-11-18T02:50:10.358Z,41.50
2022-11-18T02:52:42.078Z,37.30
2022-11-18T02:55:14.093Z,36.25
2022-11-18T02:57:44.418Z,38.13
2022-11-18T03:00:17.989Z,34.20
2022-11-18T03:02:48.541Z,36.88
2022-11-18T03:05:22.114Z,34.95
2022-11-18T03:07:55.390Z,30.83
2022-11-18T03:10:26.894Z,31.58
2022-11-18T03:13:02.942Z,32.85
2022-11-18T03:15:38.737Z,36.03
2022-11-18T03:18:21.168Z,31.58
2022-11-18T03:20:52.886Z,28.73
2022-11-18T03:23:27.394Z,31.95
2022-11-18T03:25:58.522Z,34.20
2022-11-18T03:28:32.548Z,37.27
2022-11-18T03:31:08.502Z,58.83
2022-11-18T03:33:39.261Z,80.80
2022-11-18T03:36:10.729Z,61.70
2022-11-18T03:38:43.536Z,67.80
2022-11-18T03:41:14.202Z,56.50
2022-11-18T03:43:47.727Z,34.40
2022-11-18T03:46:23.360Z,27.70
2022-11-18T03:48:54.869Z,25.30
2022-11-18T03:51:26.372Z,31.53
2022-11-18T03:53:59.276Z,22.60
2022-11-18T03:56:32.774Z,24.37
2022-11-18T03:59:08.294Z,30.57
2022-11-18T04:01:45.916Z,28.53
2022-11-18T04:04:16.144Z,29.90
2022-11-18T04:06:49.057Z,27.50
2022-11-18T04:09:23.088Z,28.67
2022-11-18T04:12:08.219Z,27.50
2022-11-18T04:14:39.635Z,25.80
2022-11-18T04:17:14.191Z,25.10
2022-11-18T04:19:44.007Z,27.07
2022-11-18T04:22:14.078Z,28.60
2022-11-18T04:24:43.491Z,34.47
2022-11-18T04:27:12.972Z,30.00
2022-11-18T04:29:42.529Z,31.15
2022-11-18T04:32:14.535Z,30.47
2022-11-18T04:34:43.938Z,32.83
2022-11-18T04:37:13.393Z,31.67
2022-11-18T04:39:42.856Z,35.47
2022-11-18T04:42:14.624Z,34.58
2022-11-18T04:44:44.023Z,40.58
2022-11-18T04:47:16.147Z,34.05
2022-11-18T04:49:45.724Z,35.17
2022-11-18T04:52:15.186Z,43.45
2022-11-18T04:54:44.758Z,36.20
2022-11-18T04:57:14.202Z,37.63
2022-11-18T04:59:43.835Z,37.20
2022-11-18T05:02:15.793Z,37.15
2022-11-18T05:04:45.258Z,36.15
2022-11-18T05:07:17.131Z,38.70
2022-11-18T05:09:46.631Z,37.60
2022-11-18T05:12:29.578Z,35.92
2022-11-18T05:14:59.096Z,36.13
2022-11-18T05:17:31.323Z,36.85
2022-11-18T05:20:00.771Z,38.33
2022-11-18T05:22:30.562Z,39.33
2022-11-18T05:25:00.101Z,32.72
2022-11-18T05:27:29.541Z,40.25
2022-11-18T05:29:59.158Z,37.60
2022-11-18T05:32:31.209Z,38.00
2022-11-18T05:35:00.646Z,38.33
2022-11-18T05:37:30.119Z,37.03
2022-11-18T05:39:59.558Z,41.22
2022-11-18T05:42:41.551Z,35.97
2022-11-18T05:45:12.041Z,38.20
2022-11-18T05:47:56.394Z,39.80
2022-11-18T05:50:25.881Z,37.70
2022-11-18T05:52:55.370Z,39.13
2022-11-18T05:55:27.466Z,37.83
2022-11-18T05:57:56.846Z,35.75
2022-11-18T06:00:26.679Z,40.33
2022-11-18T06:02:59.493Z,43.00
2022-11-18T06:05:29.473Z,39.95
2022-11-18T06:07:59.739Z,41.55
2022-11-18T06:10:31.800Z,36.88
2022-11-18T06:13:04.896Z,43.83
2022-11-18T06:15:36.435Z,40.05
2022-11-18T06:18:11.189Z,42.15
2022-11-18T06:20:42.292Z,42.35
2022-11-18T06:23:11.788Z,45.13
2022-11-18T06:25:41.608Z,42.13
2022-11-18T06:28:13.750Z,38.22
2022-11-18T06:30:43.246Z,42.33
2022-11-18T06:33:15.462Z,41.53
2022-11-18T06:35:45.141Z,39.75
2022-11-18T06:38:14.589Z,39.78
2022-11-18T06:40:44.809Z,39.28
2022-11-18T06:43:30.433Z,41.00
2022-11-18T06:46:14.068Z,38.83
2022-11-18T06:48:46.164Z,40.40
2022-11-18T06:51:16.025Z,38.95
2022-11-18T06:53:45.722Z,42.10
2022-11-18T06:56:16.781Z,44.78
2022-11-18T06:58:46.298Z,47.83
2022-11-18T07:01:17.153Z,44.25
2022-11-18T07:03:49.514Z,40.70
2022-11-18T07:06:20.713Z,38.28
2022-11-18T07:08:50.566Z,38.75
2022-11-18T07:11:21.583Z,33.60
2022-11-18T07:13:51.051Z,38.90
2022-11-18T07:16:22.002Z,41.53
2022-11-18T07:18:55.178Z,37.03
2022-11-18T07:21:26.266Z,43.75
2022-11-18T07:23:55.873Z,39.10
2022-11-18T07:26:25.817Z,44.13
2022-11-18T07:28:56.608Z,51.03
2022-11-18T07:31:26.028Z,125.90
2022-11-18T07:33:58.331Z,42.10
2022-11-18T07:36:35.168Z,39.23
2022-11-18T07:39:06.050Z,46.20
2022-11-18T07:41:35.617Z,43.07
2022-11-18T07:44:07.451Z,37.33
2022-11-18T07:46:38.008Z,43.77
2022-11-18T07:49:11.564Z,37.67
2022-11-18T07:51:43.133Z,40.70
2022-11-18T07:54:14.137Z,31.45
2022-11-18T07:56:43.573Z,37.15
2022-11-18T07:59:13.064Z,36.50
2022-11-18T08:01:42.516Z,44.17
2022-11-18T08:04:15.410Z,37.93
2022-11-18T08:06:44.887Z,50.40
2022-11-18T08:09:15.172Z,45.35
2022-11-18T08:11:47.492Z,67.40
2022-11-18T08:14:16.913Z,104.50
2022-11-18T08:16:46.436Z,52.53
2022-11-18T08:19:18.819Z,65.47
2022-11-18T08:21:48.386Z,35.60
2022-11-18T08:24:17.785Z,50.53
2022-11-18T08:26:47.360Z,51.43
2022-11-18T08:29:20.343Z,38.93
2022-11-18T08:31:54.765Z,36.63
2022-11-18T08:34:26.724Z,30.83
2022-11-18T08:36:56.163Z,30.73
2022-11-18T08:39:26.389Z,27.80
2022-11-18T08:41:55.825Z,24.43
2022-11-18T08:44:25.233Z,23.57
2022-11-18T08:46:54.605Z,22.73
2022-11-18T08:49:32.216Z,25.60
2022-11-18T08:52:02.031Z,27.37
2022-11-18T08:54:31.689Z,21.37
2022-11-18T08:57:01.060Z,24.97
2022-11-18T08:59:30.500Z,28.43
2022-11-18T09:02:00.003Z,22.07
2022-11-18T09:04:32.266Z,41.43
2022-11-18T09:07:03.006Z,26.63
2022-11-18T09:09:32.689Z,28.67
2022-11-18T09:12:02.193Z,38.37
2022-11-18T09:17:21.634Z,23.43
2022-11-18T09:19:53.733Z,20.13
2022-11-18T09:22:23.149Z,22.40
2022-11-18T09:24:55.410Z,21.13
2022-11-18T09:27:25.078Z,18.13
2022-11-18T09:29:54.479Z,19.10
2022-11-18T09:32:24.036Z,18.07
2022-11-18T09:34:56.029Z,20.40
2022-11-18T09:37:25.509Z,19.17
2022-11-18T09:39:56.017Z,15.90
2022-11-18T09:42:37.300Z,21.67
2022-11-18T09:45:20.725Z,14.40
2022-11-18T09:47:53.483Z,17.77
2022-11-18T09:53:21.147Z,21.03
2022-11-18T09:55:51.975Z,17.57
2022-11-18T09:58:24.809Z,22.33
2022-11-18T10:00:54.907Z,17.87
2022-11-18T10:03:30.497Z,25.30
2022-11-18T10:06:07.298Z,17.53
2022-11-18T10:08:45.406Z,16.90
2022-11-18T10:11:18.148Z,37.80
2022-11-18T10:13:57.749Z,19.50
2022-11-18T10:16:39.407Z,20.73
2022-11-18T10:19:15.962Z,14.73
2022-11-18T10:21:54.812Z,13.80
2022-11-18T10:24:26.406Z,19.13
2022-11-18T10:26:58.883Z,26.73
2022-11-18T10:29:28.780Z,13.10
2022-11-18T10:32:08.780Z,16.43
2022-11-18T10:34:49.978Z,11.77
2022-11-18T10:38:00.290Z,11.73
2022-11-18T10:40:27.545Z,15.90
2022-11-18T10:42:57.086Z,25.10
2022-11-18T10:45:32.091Z,50.50
2022-11-18T10:48:10.125Z,45.17
2022-11-18T10:50:41.478Z,66.40
2022-11-18T10:53:32.264Z,24.43
2022-11-18T10:56:03.296Z,14.90
2022-11-18T10:58:34.319Z,23.80
2022-11-18T11:01:22.380Z,14.07
2022-11-18T11:03:59.954Z,10.97
2022-11-18T11:06:34.608Z,11.63
2022-11-18T11:09:10.141Z,31.10
2022-11-18T11:11:43.576Z,13.37
2022-11-18T11:14:26.364Z,12.50
2022-11-18T11:17:00.930Z,10.40
2022-11-18T11:19:38.575Z,20.70
2022-11-18T11:22:11.972Z,12.57
2022-11-18T11:24:44.172Z,11.63
2022-11-18T11:30:21.920Z,12.23
2022-11-18T11:33:12.475Z,12.10
2022-11-18T11:35:54.281Z,12.10
2022-11-18T11:38:33.897Z,13.83
2022-11-18T11:41:09.804Z,11.17
2022-11-18T11:43:49.150Z,9.50
2022-11-18T11:46:28.941Z,12.97
2022-11-18T11:49:02.729Z,15.43
2022-11-18T11:51:36.860Z,8.77
2022-11-18T11:54:36.393Z,8.70
2022-11-18T11:57:20.327Z,23.60
2022-11-18T11:59:54.575Z,17.80
2022-11-18T12:02:36.420Z,10.17
2022-11-18T12:05:11.746Z,14.00
2022-11-18T12:07:44.440Z,22.73
2022-11-18T12:10:33.403Z,11.10
2022-11-18T12:13:20.403Z,9.80
2022-11-18T12:15:58.670Z,16.30
2022-11-18T12:18:33.136Z,10.10
2022-11-18T12:21:02.961Z,14.50
2022-11-18T12:23:33.191Z,10.43
2022-11-18T12:26:08.348Z,10.33
2022-11-18T12:28:42.812Z,18.20
2022-11-18T12:31:34.702Z,31.07
2022-11-18T12:34:22.360Z,17.67
2022-11-18T12:36:51.925Z,9.90
2022-11-18T12:39:49.931Z,10.90
2022-11-18T12:42:56.474Z,17.73
2022-11-18T12:45:53.083Z,20.80
2022-11-18T12:48:34.839Z,53.07
2022-11-18T12:51:05.490Z,30.20
2022-11-18T12:53:38.771Z,26.33
2022-11-18T12:56:26.380Z,21.40
2022-11-18T12:58:57.579Z,45.87
2022-11-18T13:01:32.103Z,33.93
2022-11-18T13:04:10.485Z,37.27
2022-11-18T13:06:42.043Z,48.87
2022-11-18T13:09:18.551Z,41.67
2022-11-18T13:11:50.753Z,25.90
2022-11-18T13:14:35.873Z,20.60
2022-11-18T13:17:38.684Z,62.33
2022-11-18T13:20:08.896Z,32.27
2022-11-18T13:22:50.907Z,34.83
2022-11-18T13:25:27.465Z,25.23
2022-11-18T13:28:02.719Z,17.63
2022-11-18T13:30:33.259Z,27.43
2022-11-18T13:33:05.382Z,24.43
2022-11-18T13:35:34.871Z,27.47
2022-11-18T13:38:08.293Z,10.80
2022-11-18T13:41:04.560Z,21.73
2022-11-18T13:43:34.624Z,72.07
2022-11-18T13:46:07.237Z,66.50
2022-11-18T13:48:40.616Z,14.63
2022-11-18T13:51:10.218Z,20.63
2022-11-18T13:53:41.165Z,25.23
2022-11-18T13:56:19.044Z,33.70
2022-11-18T13:59:16.317Z,16.43
2022-11-18T14:01:47.187Z,19.60
2022-11-18T14:04:24.271Z,18.40
2022-11-18T14:06:53.943Z,13.47
2022-11-18T14:09:27.497Z,13.50
2022-11-18T14:12:01.995Z,17.33
2022-11-18T14:14:33.451Z,20.43
2022-11-18T14:17:20.692Z,17.80
2022-11-18T14:19:54.401Z,20.60
2022-11-18T14:22:25.562Z,17.53
2022-11-18T14:24:59.578Z,23.77
2022-11-18T14:27:38.197Z,9.90
2022-11-18T14:30:38.429Z,16.90
2022-11-18T14:33:22.760Z,48.20
2022-11-18T14:35:57.465Z,12.47
2022-11-18T14:38:51.997Z,11.17
2022-11-18T14:41:44.842Z,6.30
2022-11-18T14:44:15.179Z,7.07
2022-11-18T14:46:46.614Z,58.73
2022-11-18T14:49:22.321Z,38.87
2022-11-18T14:51:55.285Z,21.20
2022-11-18T14:54:28.152Z,19.50
2022-11-18T14:57:00.940Z,19.97
2022-11-18T14:59:30.645Z,25.23
2022-11-18T15:02:00.580Z,15.37
2022-11-18T15:04:30.631Z,10.03
2022-11-18T15:07:02.672Z,15.77
2022-11-18T15:09:32.098Z,10.83
2022-11-18T15:12:03.653Z,22.93
2022-11-18T15:14:33.293Z,25.83
2022-11-18T15:17:02.749Z,32.80
2022-11-18T15:19:35.288Z,23.23
2022-11-18T15:22:07.606Z,18.57
2022-11-18T15:24:37.049Z,11.40
2022-11-18T15:27:06.605Z,14.77
2022-11-18T15:29:36.055Z,19.10
2022-11-18T15:32:06.634Z,19.57
2022-11-18T15:34:36.070Z,28.50
2022-11-18T15:37:08.172Z,19.10
2022-11-18T15:39:37.646Z,46.83
2022-11-18T15:42:07.249Z,48.23
2022-11-18T15:44:36.841Z,51.30
2022-11-18T15:47:06.369Z,37.43
2022-11-18T15:49:35.911Z,27.83
2022-11-18T15:52:08.667Z,14.90
2022-11-18T15:54:38.431Z,9.83
2022-11-18T15:57:08.453Z,13.93
2022-11-18T15:59:37.940Z,9.27
2022-11-18T16:02:07.393Z,8.27
2022-11-18T16:04:36.956Z,8.90
2022-11-18T16:07:09.109Z,6.47
2022-11-18T16:09:51.103Z,7.80
2022-11-18T16:12:33.112Z,13.70
2022-11-18T16:15:15.099Z,14.57
2022-11-18T16:17:44.604Z,8.67
2022-11-18T16:20:14.127Z,9.00
2022-11-18T16:22:46.366Z,12.10
2022-11-18T16:25:16.990Z,16.53
2022-11-18T16:27:46.564Z,7.30
2022-11-18T16:30:29.022Z,7.80
2022-11-18T16:32:58.465Z,8.50
2022-11-18T16:35:28.011Z,8.20
2022-11-18T16:38:00.152Z,4.47
2022-11-18T16:40:29.693Z,8.67
2022-11-18T16:42:59.428Z,5.17
2022-11-18T16:45:29.551Z,5.00
2022-11-18T16:47:59.034Z,6.33
2022-11-18T16:50:28.574Z,9.00
2022-11-18T16:53:00.592Z,12.90
2022-11-18T16:55:30.113Z,9.93
2022-11-18T16:57:59.543Z,7.50
2022-11-18T17:00:59.829Z,6.07
2022-11-18T17:03:18.612Z,9.30
2022-11-18T17:05:48.118Z,7.70
2022-11-18T17:08:20.211Z,8.80
2022-11-18T17:10:49.617Z,7.77
2022-11-18T17:13:19.108Z,7.20
2022-11-18T17:15:48.553Z,9.50
2022-11-18T17:18:17.962Z,9.17
2022-11-18T17:20:47.388Z,14.10
2022-11-18T17:23:16.932Z,9.80
2022-11-18T17:25:49.011Z,13.47
2022-11-18T17:28:18.429Z,53.93
2022-11-18T17:30:50.092Z,65.20
2022-11-18T17:33:19.876Z,14.57
2022-11-18T17:35:49.704Z,25.30
2022-11-18T17:38:20.123Z,10.23
2022-11-18T17:40:56.022Z,9.13
2022-11-18T17:43:25.770Z,23.40
2022-11-18T17:45:56.503Z,18.57
2022-11-18T17:48:26.896Z,19.87
2022-11-18T17:50:56.765Z,16.43
2022-11-18T17:53:26.223Z,25.47
2022-11-18T17:56:03.493Z,20.80
2022-11-18T17:58:33.439Z,17.33
2022-11-18T18:01:09.554Z,10.80
2022-11-18T18:03:39.371Z,17.20
2022-11-18T18:06:10.296Z,15.90
2022-11-18T18:08:40.079Z,16.80
2022-11-18T18:11:14.026Z,17.03
2022-11-18T18:13:56.756Z,10.50
2022-11-18T18:16:26.554Z,10.40
2022-11-18T18:18:56.511Z,12.37
2022-11-18T18:21:26.027Z,12.38
2022-11-18T18:23:56.019Z,8.80
2022-11-18T18:26:31.459Z,14.97
2022-11-18T18:29:01.806Z,8.50
2022-11-18T18:31:31.866Z,8.27
2022-11-18T18:34:01.327Z,7.40
2022-11-18T18:36:30.845Z,6.60
2022-11-18T18:39:02.382Z,8.75
2022-11-18T18:41:34.594Z,11.38
2022-11-18T18:44:04.391Z,7.78
2022-11-18T18:46:32.371Z,9.32
2022-11-18T18:49:06.932Z,9.00
2022-11-18T18:51:39.600Z,10.98
2022-11-18T18:54:10.219Z,20.17
2022-11-18T18:56:42.703Z,16.90
2022-11-18T18:59:12.790Z,10.75
2022-11-18T19:01:42.811Z,14.65
2022-11-18T19:04:14.125Z,14.90
2022-11-18T19:06:59.519Z,11.93
2022-11-18T19:09:29.642Z,37.67
2022-11-18T19:12:14.247Z,12.20
2022-11-18T19:14:44.056Z,14.38
2022-11-18T19:17:14.037Z,14.57
2022-11-18T19:19:56.917Z,11.00
2022-11-18T19:22:26.391Z,10.23
2022-11-18T19:24:56.430Z,18.60
2022-11-18T19:27:28.919Z,13.68
2022-11-18T19:29:58.503Z,15.63
2022-11-18T19:32:28.947Z,13.52
2022-11-18T19:34:58.496Z,17.40
2022-11-18T19:37:27.959Z,12.27
2022-11-18T19:39:58.839Z,14.60
2022-11-18T19:42:31.013Z,17.20
2022-11-18T19:45:00.558Z,17.77
2022-11-18T19:47:30.009Z,14.50
2022-11-18T19:49:59.577Z,13.90
2022-11-18T19:52:29.022Z,12.57
2022-11-18T19:54:58.506Z,16.48
2022-11-18T19:57:28.191Z,15.77
2022-11-18T20:00:00.217Z,27.23
2022-11-18T20:02:29.616Z,18.88
2022-11-18T20:05:11.484Z,13.68
2022-11-18T20:07:41.022Z,9.52
2022-11-18T20:10:11.879Z,14.25
2022-11-18T20:12:41.282Z,12.43
2022-11-18T20:15:13.874Z,21.20
2022-11-18T20:17:43.403Z,12.27
2022-11-18T20:20:13.718Z,14.73
2022-11-18T20:22:43.163Z,15.15
2022-11-18T20:25:14.290Z,14.27
2022-11-18T20:27:43.785Z,15.15
2022-11-18T20:30:17.579Z,13.77
2022-11-18T20:32:47.360Z,12.25
2022-11-18T20:35:17.387Z,16.60
2022-11-18T20:37:46.794Z,16.63
2022-11-18T20:40:16.238Z,16.23
2022-11-18T20:42:58.083Z,18.25
2022-11-18T20:45:30.143Z,19.27
2022-11-18T20:47:59.541Z,16.48
2022-11-18T20:50:28.991Z,10.82
2022-11-18T20:52:58.463Z,99.72
2022-11-18T20:55:27.931Z,41.97
2022-11-18T20:57:57.304Z,66.65
2022-11-18T21:00:26.786Z,39.63
2022-11-18T21:02:58.901Z,36.17
2022-11-18T21:05:30.626Z,21.80
2022-11-18T21:08:00.079Z,27.25
2022-11-18T21:10:29.460Z,30.40
2022-11-18T21:13:11.335Z,38.40
2022-11-18T21:15:40.757Z,13.30
2022-11-18T21:18:13.001Z,21.80
2022-11-18T21:20:54.904Z,13.93
2022-11-18T21:23:24.326Z,12.88
2022-11-18T21:25:53.957Z,10.25
2022-11-18T21:28:23.359Z,11.00
2022-11-18T21:30:52.857Z,13.15
2022-11-18T21:33:25.323Z,13.57
2022-11-18T21:35:54.769Z,7.78
2022-11-18T21:38:24.406Z,14.18
2022-11-18T21:40:53.849Z,17.60
2022-11-18T21:43:50.263Z,12.10
2022-11-18T21:46:13.977Z,13.55
2022-11-18T21:48:47.143Z,19.27
2022-11-18T21:51:18.691Z,14.07
2022-11-18T21:53:48.545Z,14.73
2022-11-18T21:56:20.408Z,20.88
2022-11-18T21:58:49.887Z,13.90
2022-11-18T22:01:21.093Z,21.88
2022-11-18T22:03:55.677Z,15.02
2022-11-18T22:06:27.117Z,14.15
2022-11-18T22:08:56.493Z,16.67
2022-11-18T22:11:26.142Z,21.63
2022-11-18T22:13:55.976Z,15.07
2022-11-18T22:16:27.141Z,17.00
2022-11-18T22:19:06.655Z,25.98
2022-11-18T22:21:37.493Z,20.63
2022-11-18T22:24:07.209Z,20.98
2022-11-18T22:26:36.647Z,26.75
2022-11-18T22:29:06.225Z,26.63
2022-11-18T22:31:35.665Z,18.73
2022-11-18T22:34:08.000Z,18.20
2022-11-18T22:36:37.634Z,19.67
2022-11-18T22:39:07.175Z,18.70
2022-11-18T22:41:49.306Z,14.15
2022-11-18T22:44:19.502Z,18.50
2022-11-18T22:46:48.868Z,15.80
2022-11-18T22:49:21.314Z,19.38
2022-11-18T22:51:51.085Z,16.25
2022-11-18T22:54:38.316Z,19.38
2022-11-18T22:57:08.754Z,18.83
2022-11-18T22:59:38.246Z,20.58
2022-11-18T23:02:08.167Z,60.92
2022-11-18T23:04:40.158Z,24.77
2022-11-18T23:07:09.753Z,21.67
2022-11-18T23:09:39.158Z,16.25
2022-11-18T23:12:21.252Z,18.67
2022-11-18T23:14:50.751Z,25.63
2022-11-18T23:17:20.798Z,17.20
2022-11-18T23:19:52.748Z,24.33
2022-11-18T23:22:22.164Z,17.70
2022-11-18T23:24:51.559Z,16.63
2022-11-18T23:27:21.025Z,26.30
2022-11-18T23:29:50.454Z,17.10
2022-11-18T23:32:19.928Z,19.38
2022-11-18T23:34:52.321Z,22.00
2022-11-18T23:37:21.737Z,19.02
2022-11-18T23:39:52.664Z,18.83
2022-11-18T23:42:22.063Z,21.45
2022-11-18T23:44:52.840Z,18.15
2022-11-18T23:47:22.322Z,18.60
2022-11-18T23:49:54.315Z,18.95
2022-11-18T23:52:23.766Z,19.38
2022-11-18T23:54:54.565Z,19.77
2022-11-18T23:57:24.032Z,20.55
2022-11-18T23:59:53.389Z,15.30
